Latest Weather Observations for Double Island Point

IDQ60901

Issued at 10:11 pm EST Friday 15 November 2019 (issued every 10 minutes, with the page automatically refreshed every 10 minutes)

About weather observations | Map of Brisbane area stations | Latest observations for Brisbane area | Other Formats
Station Details ID: 040068 Name: DOUBLE ISLAND POINT LIGHTHOUSE Lat: -25.93 Lon: 153.19 Height: 95.64 m
Data from the previous 72 hours. | See also: Recent months at Double Island Point
Date/Time
EST
Temp
°C
App
Temp
°C
Dew
Point
°C
Rel
Hum
%
Delta-T
°C
Wind Press
QNH
hPa
Press
MSL
hPa
Rain since
9am
mm
Dir  Spd
km/h
Gust
km/h
Spd
kts
Gust
kts
15/10:00pm 22.8 23.5 20.5 87 1.5 NNW 17 26 9 14 1014.3 1013.8 0.0
15/09:30pm 22.8 24.7 20.5 87 1.5 N 11 15 6 8 1014.2 1013.7 0.0
15/09:00pm 22.9 24.7 20.4 86 1.6 N 11 19 6 10 1014.0 1013.5 0.0
15/08:30pm 22.9 25.5 20.4 86 1.6 N 7 13 4 7 1013.9 1013.4 0.0
15/08:00pm 22.9 25.5 20.4 86 1.6 NW 7 11 4 6 1013.7 1013.2 0.0
15/07:30pm 23.1 25.9 20.4 85 1.8 N 6 9 3 5 1013.5 1013.0 0.0
15/07:00pm 23.3 25.9 20.4 84 1.9 N 7 13 4 7 1013.1 1012.7 0.0
15/06:30pm 23.6 25.7 20.1 81 2.3 N 9 15 5 8 1012.8 1012.4 0.0
15/06:00pm 23.8 26.2 20.9 84 1.9 NNE 9 20 5 11 1012.4 1012.0 0.0
15/05:30pm 24.3 26.9 21.2 83 2.0 NE 9 19 5 10 1012.1 1011.7 0.0
15/05:00pm 24.4 25.8 21.1 82 2.2 N 15 35 8 19 1011.6 1011.2 0.0
15/04:30pm 24.6 25.0 20.9 80 2.4 N 20 39 11 21 1011.1 1010.7 0.0
15/04:09pm 24.5 23.3 20.8 80 2.4 N 28 46 15 25 1010.9 1010.5 0.0
15/04:00pm 24.5 24.3 20.6 79 2.6 N 22 44 12 24 1011.0 1010.6 0.0
15/03:30pm 24.6 23.9 20.3 77 2.8 N 24 46 13 25 1011.2 1010.8 0.0
15/03:00pm 25.7 21.2 20.0 71 3.7 NNE 43 56 23 30 1010.9 1010.5 0.0
15/02:30pm 27.1 22.3 20.4 66 4.4 NNE 46 56 25 30 1011.1 1010.7 0.0
15/02:00pm 27.8 23.9 21.1 67 4.5 NNE 43 50 23 27 1011.7 1011.3 0.0
15/01:30pm 28.1 25.1 21.4 67 4.5 NNE 39 46 21 25 1012.2 1011.8 0.0
15/01:00pm 28.1 26.5 21.6 68 4.4 NNE 32 39 17 21 1012.7 1012.3 0.0
15/12:30pm 28.9 27.5 21.9 66 4.7 NNE 32 37 17 20 1013.0 1012.6 0.0
15/12:00pm 29.5 29.7 22.0 64 5.1 NNE 24 30 13 16 1013.6 1013.1 0.0
15/11:30am 29.7 30.7 22.2 64 5.1 NNE 20 24 11 13 1014.0 1013.5 0.0
15/11:00am 29.3 30.2 22.0 64 4.9 NNE 20 24 11 13 1014.6 1014.1 0.0
15/10:30am 28.7 31.1 22.2 68 4.4 NNE 13 20 7 11 1014.9 1014.4 0.0
15/10:00am 28.3 29.6 22.3 70 4.1 NNE 19 22 10 12 1015.3 1014.8 0.0
15/09:30am 27.8 31.3 22.1 71 3.8 NNE 7 13 4 7 1015.4 1014.9 0.0
15/09:00am 26.8 30.3 21.8 74 3.4 N 6 9 3 5 1015.4 1014.9 0.0
15/08:30am 25.9 28.9 21.3 76 3.1 N 7 9 4 5 1015.5 1015.0 0.0
15/08:00am 25.9 28.9 21.3 76 3.1 N 7 11 4 6 1015.3 1014.8 0.0
15/07:30am 25.5 28.9 22.0 81 2.3 N 7 11 4 6 1015.4 1014.9 0.0
15/07:00am 24.4 27.7 21.9 86 1.7 NNE 7 9 4 5 1015.2 1014.7 0.0
15/06:30am 23.6 27.2 22.0 91 1.1 NNE 6 9 3 5 1015.0 1014.5 0.0
15/06:00am 22.8 27.0 21.8 94 0.7 NNE 2 6 1 3 1014.7 1014.2 0.0
15/05:30am 22.3 26.7 21.3 94 0.7 CALM 0 6 0 3 1014.5 1014.0 0.0
15/05:00am 22.2 26.1 21.2 94 0.7 NNE 2 7 1 4 1014.2 1013.7 0.0
15/04:30am 22.2 24.8 21.2 94 0.7 NNE 9 15 5 8 1013.8 1013.3 0.0
15/04:00am 22.1 24.2 20.9 93 0.8 NNE 11 15 6 8 1013.5 1013.0 0.0
15/03:30am 22.2 25.6 21.0 93 0.8 E 4 9 2 5 1013.5 1013.0 0.0
15/03:00am 22.1 25.1 20.9 93 0.8 E 6 11 3 6 1013.3 1012.9 0.0
15/02:30am 22.0 25.7 20.8 93 0.8 E 2 6 1 3 1013.5 1013.0 0.0
15/02:00am 22.4 26.8 21.4 94 0.7 CALM 0 6 0 3 1013.6 1013.1 0.0
15/01:30am 22.2 26.5 21.2 94 0.7 CALM 0 0 0 0 1013.7 1013.2 0.0
15/01:00am 22.3 26.7 21.3 94 0.7 CALM 0 0 0 0 1014.0 1013.5 0.0
15/12:30am 22.4 26.3 21.2 93 0.8 E 2 7 1 4 1014.1 1013.6 0.0
15/12:00am 22.4 26.7 21.2 93 0.8 CALM 0 6 0 3 1014.3 1013.8 0.0
 
Date/Time
EST
Temp
°C
App
Temp
°C
Dew
Point
°C
Rel
Hum
%
Delta-T
°C
Wind Press
QNH
hPa
Press
MSL
hPa
Rain since
9am
mm
Dir  Spd
km/h
Gust
km/h
Spd
kts
Gust
kts
14/11:30pm 22.4 26.6 21.0 92 0.9 CALM 0 0 0 0 1014.4 1013.9 0.0
14/11:00pm 22.2 26.3 20.8 92 0.9 CALM 0 0 0 0 1014.5 1014.0 0.0
14/10:30pm 22.2 24.9 20.7 91 1.0 E 7 7 4 4 1014.5 1014.0 0.0
14/10:00pm 22.3 25.1 20.8 91 1.0 E 7 11 4 6 1014.4 1013.9 0.0
14/09:30pm 22.4 25.4 20.9 91 1.0 E 6 9 3 5 1014.4 1013.9 0.0
14/09:00pm 22.7 24.9 21.2 91 1.0 E 11 13 6 7 1014.2 1013.7 0.0
14/08:30pm 22.9 25.5 21.2 90 1.1 E 9 11 5 6 1014.0 1013.5 0.0
14/08:00pm 23.1 25.4 21.4 90 1.1 E 11 15 6 8 1013.9 1013.4 0.0
14/07:30pm 23.0 24.8 21.1 89 1.2 E 13 15 7 8 1013.6 1013.1 0.0
14/07:00pm 22.9 24.3 21.0 89 1.2 ENE 15 19 8 10 1013.2 1012.8 0.0
14/06:30pm 22.7 23.5 20.6 88 1.4 ENE 17 22 9 12 1013.0 1012.6 0.0
14/06:00pm 22.8 22.8 20.1 85 1.7 ENE 20 26 11 14 1012.5 1012.1 0.0
14/05:30pm 23.1 23.1 20.1 83 1.9 ENE 20 26 11 14 1012.1 1011.7 0.0
14/05:00pm 23.3 22.7 19.7 80 2.3 ENE 22 28 12 15 1012.1 1011.7 0.0
14/04:30pm 23.7 22.6 19.4 77 2.8 ENE 24 26 13 14 1012.0 1011.6 0.0
14/04:00pm 23.9 23.3 18.8 73 3.2 ENE 20 24 11 13 1012.2 1011.8 0.0
14/03:30pm 24.6 24.2 18.1 67 4.1 ENE 17 20 9 11 1012.1 1011.7 0.0
14/03:00pm 24.9 24.1 17.9 65 4.4 ENE 19 20 10 11 1012.3 1011.9 0.0
14/02:30pm 25.4 24.4 17.6 62 4.9 E 19 22 10 12 1012.8 1012.4 0.0
14/02:00pm 25.5 24.5 17.9 63 4.8 ESE 20 22 11 12 1013.1 1012.7 0.0
14/01:30pm 25.2 24.4 18.4 66 4.3 ESE 20 26 11 14 1013.7 1013.2 0.0
14/01:00pm 25.3 24.5 18.5 66 4.3 SE 20 24 11 13 1014.2 1013.7 0.0
14/12:30pm 25.2 23.6 17.4 62 4.9 SE 22 26 12 14 1014.7 1014.2 0.0
14/12:00pm 24.7 22.2 17.2 63 4.7 SSE 26 30 14 16 1015.0 1014.5 0.0
14/11:30am 25.2 22.6 17.7 63 4.7 SSE 28 32 15 17 1015.3 1014.8 0.0
14/11:00am 25.1 22.0 18.3 66 4.3 SSE 32 37 17 20 1015.4 1014.9 0.0
14/10:30am 24.7 21.1 18.6 69 3.9 SSE 35 41 19 22 1015.6 1015.1 0.0
14/10:00am 24.7 21.6 18.9 70 3.7 SSE 33 41 18 22 1015.7 1015.2 0.0
14/09:30am 23.4 19.7 18.3 73 3.2 SSE 35 41 19 22 1015.8 1015.3 0.0
14/09:00am 23.9 20.6 18.3 71 3.5 SSE 33 41 18 22 1015.9 1015.4 0.0
14/08:30am 23.7 20.4 18.4 72 3.4 SSE 33 41 18 22 1015.7 1015.2 0.0
14/08:00am 23.6 20.1 18.7 74 3.1 SSE 35 39 19 21 1015.6 1015.1 0.0
14/07:30am 23.0 19.6 19.0 78 2.5 SSE 35 41 19 22 1015.2 1014.7 0.0
14/07:00am 22.6 19.1 18.8 79 2.4 SSE 35 41 19 22 1015.2 1014.7 0.0
14/06:30am 22.0 18.1 18.8 82 2.0 SSE 37 43 20 23 1014.9 1014.4 0.0
14/06:00am 21.8 18.1 19.2 85 1.7 SSE 37 43 20 23 1014.6 1014.1 0.0
14/05:30am 21.8 18.1 19.2 85 1.7 SSE 37 39 20 21 1014.1 1013.6 0.0
14/05:00am 21.6 18.7 19.3 87 1.5 SSE 33 37 18 20 1013.5 1013.0 0.0
14/04:30am 21.5 17.8 19.1 86 1.5 SSE 37 43 20 23 1012.9 1012.5 0.0
14/04:00am 21.8 17.1 19.4 86 1.5 SSE 43 46 23 25 1012.8 1012.4 0.0
14/03:30am 21.8 17.9 19.5 87 1.5 SSE 39 43 21 23 1012.5 1012.1 0.0
14/03:00am 21.9 19.3 19.8 88 1.3 SE 33 39 18 21 1012.5 1012.1 0.0
14/02:30am 21.9 19.3 20.0 89 1.2 SE 33 37 18 20 1012.7 1012.3 0.0
14/02:00am 21.9 19.4 19.8 88 1.3 SE 32 35 17 19 1012.8 1012.4 0.0
14/01:30am 22.1 19.8 20.2 89 1.2 SE 32 37 17 20 1012.9 1012.5 0.0
14/01:00am 22.0 19.6 19.9 88 1.4 ESE 32 39 17 21 1012.7 1012.3 0.0
14/12:30am 22.0 18.5 19.7 87 1.5 SE 37 43 20 23 1013.0 1012.6 0.0
14/12:00am 22.2 18.6 20.1 88 1.4 SE 39 46 21 25 1013.1 1012.7 0.0
 
Date/Time
EST
Temp
°C
App
Temp
°C
Dew
Point
°C
Rel
Hum
%
Delta-T
°C
Wind Press
QNH
hPa
Press
MSL
hPa
Rain since
9am
mm
Dir  Spd
km/h
Gust
km/h
Spd
kts
Gust
kts
13/11:30pm 22.1 18.1 20.2 89 1.2 SE 41 46 22 25 1013.2 1012.8 0.0
13/11:00pm 22.3 17.8 20.2 88 1.4 SE 44 52 24 28 1013.0 1012.6 0.0
13/10:30pm 22.4 18.0 20.5 89 1.2 SE 44 50 24 27 1013.3 1012.9 0.0
13/10:00pm 22.5 18.4 20.8 90 1.1 SE 43 48 23 26 1013.2 1012.8 0.0
13/09:30pm 22.7 20.0 21.2 91 1.0 SE 37 44 20 24 1013.0 1012.6 0.0
13/09:00pm 23.2 22.2 21.3 89 1.3 SSE 28 32 15 17 1012.6 1012.2 0.0
13/08:30pm 22.8 23.2 20.9 89 1.2 S 20 24 11 13 1012.5 1012.1 0.0
13/08:00pm 23.3 24.1 20.6 85 1.8 SW 17 26 9 14 1012.2 1011.8 0.0
13/07:30pm 24.1 23.1 20.4 80 2.4 WNW 26 32 14 17 1011.6 1011.2 0.0
13/07:00pm 24.4 24.4 20.1 77 2.8 WNW 20 26 11 14 1011.1 1010.7 0.0
13/06:30pm 25.0 27.3 19.8 73 3.4 WSW 7 13 4 7 1010.7 1010.3 0.0
13/06:00pm 24.4 24.4 20.1 77 2.8 NNW 20 28 11 15 1009.4 1009.0 0.0
13/05:30pm 25.3 27.0 20.1 73 3.4 N 11 19 6 10 1008.2 1007.8 0.0
13/05:00pm 26.4 29.0 20.5 70 3.9 N 7 11 4 6 1008.0 1007.6 0.0
13/04:30pm 27.3 29.7 20.9 68 4.2 NNE 9 15 5 8 1007.8 1007.3 0.0
13/04:00pm 28.0 30.2 21.1 66 4.6 NNE 11 20 6 11 1007.7 1007.2 0.0
13/03:30pm 28.0 30.0 21.5 67 4.4 N 13 26 7 14 1007.8 1007.3 0.0
13/03:00pm 27.7 27.1 21.3 68 4.3 NNE 26 35 14 19 1008.0 1007.6 0.0
13/02:30pm 28.3 27.8 20.8 63 5.0 N 24 39 13 21 1008.3 1007.9 0.0
13/02:00pm 29.3 30.9 19.9 57 6.2 NNW 11 24 6 13 1008.6 1008.2 0.0
13/01:30pm 30.4 31.5 21.2 58 6.2 NNE 17 24 9 13 1009.2 1008.8 0.0
13/01:00pm 32.4 35.3 20.6 49 7.9 N 6 13 3 7 1009.7 1009.3 0.0
13/12:30pm 33.2 31.4 16.1 35 10.8 NNW 20 30 11 16 1010.4 1010.0 0.0
13/12:00pm 31.3 28.2 16.5 41 9.3 NNW 28 41 15 22 1010.5 1010.1 0.0
13/11:30am 32.4 29.9 18.9 44 8.8 NNW 30 39 16 21 1010.9 1010.5 0.0
13/11:00am 31.3 28.1 18.6 46 8.3 NNW 33 41 18 22 1011.2 1010.8 0.0
13/10:30am 29.1 24.3 17.6 50 7.3 NNW 39 50 21 27 1011.5 1011.1 0.0
13/10:00am 28.5 22.3 18.3 54 6.5 NNW 48 57 26 31 1011.7 1011.3 0.0
13/09:30am 27.2 21.7 17.7 56 6.0 NNW 43 56 23 30 1012.1 1011.7 0.0
13/09:00am 26.5 21.6 18.1 60 5.3 NNW 41 56 22 30 1012.4 1012.0 0.0
13/08:38am 25.6 20.8 17.5 61 5.1 NNW 39 57 21 31 1012.5 1012.1 0.0
13/08:30am 25.8 21.0 18.5 64 4.7 NNW 41 56 22 30 1012.7 1012.3 0.0
13/08:02am 24.5 18.7 18.2 68 4.0 NNW 46 65 25 35 1012.4 1012.0 0.0
13/08:00am 24.3 18.0 18.0 68 4.0 NNW 48 65 26 35 1012.3 1011.9 0.0
13/07:31am 23.6 17.3 18.0 71 3.5 NW 48 69 26 37 1012.1 1011.7 0.0
13/07:30am 23.7 17.9 18.4 72 3.4 NW 46 63 25 34 1012.2 1011.8 0.0
13/07:13am 23.7 18.6 19.0 75 3.0 NNW 44 63 24 34 1011.9 1011.5 0.0
13/07:00am 23.3 17.6 18.6 75 3.0 NNW 46 59 25 32 1011.6 1011.2 0.0
13/06:30am 23.3 19.5 19.0 77 2.7 NNW 37 54 20 29 1011.7 1011.3 0.0
13/06:02am 22.9 17.1 18.4 76 2.8 NNW 46 65 25 35 1011.3 1010.9 0.0
13/06:00am 22.9 17.7 18.7 77 2.7 NNW 44 61 24 33 1011.4 1011.0 0.0
13/05:43am 22.6 16.9 18.6 78 2.5 NNW 46 65 25 35 1011.4 1011.0 0.0
13/05:30am 22.5 16.9 18.7 79 2.4 NNW 46 59 25 32 1011.2 1010.8 0.0
13/05:00am 22.1 16.4 18.5 80 2.3 NNW 46 61 25 33 1011.0 1010.6 0.0
13/04:30am 22.1 16.0 18.5 80 2.3 NNW 48 61 26 33 1010.8 1010.4 0.0
13/04:00am 22.3 15.4 18.5 79 2.4 NNW 52 65 28 35 1010.4 1010.0 0.0
13/03:30am 22.4 16.4 18.6 79 2.4 NNW 48 63 26 34 1010.6 1010.2 0.0
13/03:00am 22.3 16.6 18.5 79 2.4 NNW 46 59 25 32 1010.8 1010.4 0.0
13/02:30am 22.3 16.2 18.5 79 2.4 NNW 48 59 26 32 1010.7 1010.3 0.0
13/02:00am 22.3 15.8 18.5 79 2.4 NNW 50 63 27 34 1010.6 1010.2 0.0
13/01:30am 22.4 16.4 18.8 80 2.3 NNW 48 61 26 33 1011.0 1010.6 0.0
13/01:00am 22.5 15.8 18.9 80 2.3 NNW 52 69 28 37 1011.5 1011.1 0.0
13/12:49am 22.5 17.1 19.1 81 2.2 NNW 46 65 25 35 1011.6 1011.2 0.0
13/12:30am 22.5 17.1 19.1 81 2.2 NNW 46 57 25 31 1011.8 1011.4 0.0
13/12:00am 22.4 18.2 19.0 81 2.2 NNW 39 48 21 26 1011.9 1011.5 0.0
 
Date/Time
EST
Temp
°C
App
Temp
°C
Dew
Point
°C
Rel
Hum
%
Delta-T
°C
Wind Press
QNH
hPa
Press
MSL
hPa
Rain since
9am
mm
Dir  Spd
km/h
Gust
km/h
Spd
kts
Gust
kts
12/11:30pm 22.4 19.8 19.4 83 1.9 N 32 46 17 25 1012.3 1011.9 0.0
12/11:00pm 22.5 19.5 19.1 81 2.2 N 33 44 18 24 1012.6 1012.2 0.0
12/10:42pm 22.4 19.6 19.0 81 2.2 N 32 52 17 28 1012.6 1012.2 0.0
12/10:30pm 22.4 20.0 19.0 81 2.2 N 30 43 16 23 1012.7 1012.3 0.0

Latest Capital City Observations: Canberra | Sydney | Melbourne | Brisbane | Adelaide | Perth | Hobart | Darwin

Other formats

Comma delimited format used in spreadsheet applications
http://www.bom.gov.au/fwo/IDQ60901/IDQ60901.94584.axf

JavaScript Object Notation format (JSON) in row-major order
http://www.bom.gov.au/fwo/IDQ60901/IDQ60901.94584.json

Data quality

Most of these data are generated automatically and are frequently updated. Quality checks on data are not normally performed. It is possible for incorrect values to appear. Refer to information at About Latest Weather Observations and please check the disclaimer before using these data.